Terminal Aerodrome Forecast
Issued by NWS Dallas/Fort Worth, TX

Home | Current Version | Previous Version | Text Only | Print | Product List | Glossary On
Versions: 1 2 3 4 5 6 7 8 9 10 11 12 13 14 15 16 17 18 19 20 21 22 23 24 25
433
FTUS44 KFWD 132343 CCA
TAFDFW
TAF COR
KDFW 132343Z 1400/1506 13013KT P6SM SCT035 SCT300
     FM140700 17017KT P6SM BKN015
     FM141500 19016KT P6SM BKN025
     FM142000 18012KT P6SM SCT030 BKN045
     FM150400 VRB04KT P6SM BKN025=

USA.gov is the U.S. government's official web portal to all federal, state and local government web resources and services.